Time;durP1;ratioP1;P1;durP2;ratioP2;P2;SDS_P1;SDS_P2;PMS_P1;PMS_P2;Temp;Humidity;BMP_temperature;BMP_pressure;BME280_temperature;BME280_humidity;BME280_pressure;Samples;Min_cycle;Max_cycle;Signal;HPM_P1;HPM_P2
2023/06/26 00:01:07;;;;;;;11.10;10.10;;;;;;;18.88;93.73;99239.04;105812;1258;72146;-84
2023/06/26 00:03:35;;;;;;;10.70;9.60;;;;;;;18.85;94.20;99238.67;108264;1257;70167;-85
2023/06/26 00:06:03;;;;;;;10.90;9.70;;;;;;;18.82;93.77;99236.45;106925;1260;71302;-84
2023/06/26 00:08:31;;;;;;;10.30;9.30;;;;;;;18.75;93.44;99238.67;106219;1262;59755;-84
2023/06/26 00:10:58;;;;;;;9.90;9.00;;;;;;;18.67;93.65;99232.30;106079;1262;60030;-82
2023/06/26 00:13:26;;;;;;;10.60;9.50;;;;;;;18.65;93.91;99235.80;106352;1259;72986;-84
2023/06/26 00:15:53;;;;;;;12.60;10.80;;;;;;;18.64;93.82;99234.13;106339;1260;67735;-85
2023/06/26 00:18:21;;;;;;;10.40;9.30;;;;;;;18.60;93.61;99230.73;106081;1257;72749;-83
2023/06/26 00:20:48;;;;;;;9.80;8.80;;;;;;;18.53;94.19;99228.57;105783;1258;60105;-84
2023/06/26 00:23:16;;;;;;;10.20;9.00;;;;;;;18.49;94.22;99230.80;106060;1256;59117;-84
2023/06/26 00:25:44;;;;;;;9.90;8.90;;;;;;;18.43;93.70;99230.42;106836;1257;73159;-83
2023/06/26 00:28:11;;;;;;;10.00;9.00;;;;;;;18.35;93.67;99228.45;107153;1261;67717;-80
2023/06/26 00:30:40;;;;;;;12.40;9.40;;;;;;;18.28;93.99;99230.24;107619;1258;71517;-83
2023/06/26 00:33:08;;;;;;;9.50;8.50;;;;;;;18.26;94.18;99231.26;108230;1257;59666;-81
2023/06/26 00:35:36;;;;;;;9.70;8.70;;;;;;;18.25;94.15;99231.94;108404;1256;59221;-81
2023/06/26 00:38:04;;;;;;;10.40;9.20;;;;;;;18.25;94.48;99229.55;106954;1258;71923;-82
2023/06/26 00:40:32;;;;;;;10.30;9.20;;;;;;;18.24;94.53;99226.59;106349;1255;68898;-85
2023/06/26 00:43:00;;;;;;;13.00;9.00;;;;;;;18.22;94.28;99225.05;107259;1256;72856;-83
2023/06/26 00:45:28;;;;;;;11.50;8.80;;;;;;;18.19;94.28;99225.01;105854;1257;60196;-84
2023/06/26 00:48:14;;;;;;;11.50;10.40;;;;;;;18.13;94.28;99224.69;106747;1256;59747;-83
2023/06/26 00:50:41;;;;;;;11.20;9.40;;;;;;;18.11;94.42;99223.24;106005;1258;71831;-81
2023/06/26 00:53:09;;;;;;;10.40;9.30;;;;;;;18.08;94.35;99220.55;106180;1260;70611;-81
2023/06/26 00:55:37;;;;;;;12.20;9.70;;;;;;;18.02;94.28;99216.08;106865;1258;71891;-81
2023/06/26 00:58:05;;;;;;;9.30;8.10;;;;;;;17.99;94.35;99222.34;107134;1257;59249;-80
2023/06/26 01:00:33;;;;;;;12.20;8.60;;;;;;;17.98;94.66;99221.15;106803;1257;61482;-80
2023/06/26 01:03:01;;;;;;;10.00;8.90;;;;;;;17.97;94.51;99219.34;107009;1257;71742;-80
2023/06/26 01:05:29;;;;;;;10.70;8.90;;;;;;;17.92;94.19;99222.81;107603;1257;70924;-80
2023/06/26 01:07:57;;;;;;;10.90;8.70;;;;;;;17.87;94.14;99225.97;107705;1256;70149;-79
2023/06/26 01:10:29;;;;;;;9.00;8.20;;;;;;;17.81;93.98;99225.77;107001;1257;59607;-81
2023/06/26 01:12:57;;;;;;;9.60;8.60;;;;;;;17.78;94.41;99223.59;106765;1256;59518;-82
2023/06/26 01:15:25;;;;;;;8.40;7.50;;;;;;;17.80;95.00;99226.87;106305;1263;71800;-79
2023/06/26 01:17:52;;;;;;;11.80;8.80;;;;;;;17.83;95.18;99228.53;105910;1263;70138;-82
2023/06/26 01:20:20;;;;;;;11.00;8.90;;;;;;;17.85;95.27;99228.98;105696;1257;71374;-80
2023/06/26 01:23:10;;;;;;;11.00;8.90;;;;;;;17.87;95.15;99228.96;106159;1263;59660;-80
2023/06/26 01:26:05;;;;;;;10.10;9.10;;;;;;;17.83;95.55;99230.10;106099;1255;59644;-82
2023/06/26 01:28:38;;;;;;;10.30;9.00;;;;;;;17.84;95.63;99231.59;106321;1257;73217;-79
2023/06/26 01:31:06;;;;;;;10.10;8.60;;;;;;;17.81;95.50;99230.03;106637;1257;68755;-84
2023/06/26 01:33:35;;;;;;;10.10;9.10;;;;;;;17.80;95.90;99228.92;106010;1261;72664;-81
2023/06/26 01:36:03;;;;;;;9.20;8.30;;;;;;;17.79;95.70;99230.23;107228;1257;59320;-84
2023/06/26 01:38:31;;;;;;;8.60;7.20;;;;;;;17.78;95.62;99228.38;107582;1258;59184;-83
2023/06/26 01:40:59;;;;;;;9.30;8.30;;;;;;;17.77;95.49;99228.18;108646;1257;71891;-83
2023/06/26 01:44:04;;;;;;;9.10;8.20;;;;;;;17.77;95.60;99223.33;107855;1257;69030;-84
2023/06/26 01:46:55;;;;;;;10.10;8.50;;;;;;;17.77;95.22;99220.80;107322;1257;71345;-84
2023/06/26 01:49:42;;;;;;;8.00;7.30;;;;;;;17.76;94.69;99216.17;108295;1257;59276;-83
2023/06/26 01:52:45;;;;;;;10.10;8.30;;;;;;;17.73;94.67;99218.91;107357;1260;61677;-80
2023/06/26 01:55:43;;;;;;;9.20;7.90;;;;;;;17.73;94.60;99216.76;105951;1261;73129;-82
2023/06/26 01:58:12;;;;;;;9.00;8.10;;;;;;;17.75;94.63;99218.39;105812;1257;70257;-80
2023/06/26 02:00:39;;;;;;;8.80;7.90;;;;;;;17.77;95.04;99219.32;105843;1260;72787;-80
2023/06/26 02:03:07;;;;;;;8.00;7.20;;;;;;;17.81;95.04;99217.92;105773;1263;59628;-78
2023/06/26 02:05:38;;;;;;;8.70;7.80;;;;;;;17.85;94.69;99212.89;105751;1262;58355;-82
2023/06/26 02:08:10;;;;;;;9.10;7.90;;;;;;;17.84;94.24;99211.17;106080;1262;72270;-80
2023/06/26 02:10:38;;;;;;;8.80;7.90;;;;;;;17.83;94.14;99207.27;106288;1262;68924;-82
2023/06/26 02:13:06;;;;;;;7.70;7.00;;;;;;;17.84;94.49;99206.42;107408;1265;71439;-82
2023/06/26 02:15:35;;;;;;;7.90;6.90;;;;;;;17.86;93.80;99202.50;107058;1264;59641;-83
2023/06/26 02:18:03;;;;;;;8.20;7.20;;;;;;;17.83;93.07;99201.28;106663;1262;59241;-82
2023/06/26 02:20:30;;;;;;;8.00;7.10;;;;;;;17.82;92.78;99200.10;107580;1257;72228;-82
2023/06/26 02:23:00;;;;;;;8.20;6.50;;;;;;;17.76;92.27;99205.02;107769;1260;69019;-82
2023/06/26 02:25:27;;;;;;;7.70;7.00;;;;;;;17.70;92.18;99203.57;107285;1264;71963;-82
2023/06/26 02:27:56;;;;;;;7.80;7.00;;;;;;;17.66;92.47;99201.80;107071;1258;59699;-83
2023/06/26 02:30:24;;;;;;;7.20;6.50;;;;;;;17.65;92.49;99197.16;108161;1256;58921;-82
2023/06/26 02:32:52;;;;;;;6.90;6.30;;;;;;;17.66;92.60;99197.81;106526;1256;71809;-84
2023/06/26 02:35:20;;;;;;;7.80;7.00;;;;;;;17.66;92.62;99192.60;106230;1263;69223;-80
2023/06/26 02:37:47;;;;;;;8.10;7.20;;;;;;;17.66;92.76;99194.21;106371;1262;71496;-80
2023/06/26 02:40:15;;;;;;;8.00;7.10;;;;;;;17.70;93.13;99189.73;107047;1257;59379;-75
2023/06/26 02:42:43;;;;;;;8.00;6.50;;;;;;;17.72;92.48;99188.23;106099;1256;59585;-76
2023/06/26 02:45:11;;;;;;;9.10;6.50;;;;;;;17.67;92.38;99186.29;106505;1256;71754;-77
2023/06/26 02:47:40;;;;;;;7.30;6.50;;;;;;;17.71;93.13;99182.99;108327;1256;68622;-78
2023/06/26 02:50:09;;;;;;;7.40;6.50;;;;;;;17.77;93.06;99183.71;108137;1260;70288;-78
2023/06/26 02:52:55;;;;;;;8.00;6.10;;;;;;;17.82;92.13;99178.48;106448;1260;60138;-79
2023/06/26 02:55:23;;;;;;;7.10;6.40;;;;;;;17.84;92.32;99180.96;107523;1256;59276;-79
2023/06/26 02:57:51;;;;;;;7.60;6.90;;;;;;;17.85;92.37;99180.57;105787;1259;71849;-78
2023/06/26 03:00:19;;;;;;;8.60;6.70;;;;;;;17.87;91.90;99179.68;105569;1264;71558;-76
2023/06/26 03:02:49;;;;;;;7.10;6.40;;;;;;;17.80;91.22;99180.61;106189;1257;70075;-78
2023/06/26 03:05:18;;;;;;;6.60;6.00;;;;;;;17.75;91.98;99181.93;106076;1259;59627;-80
2023/06/26 03:07:46;;;;;;;7.90;6.70;;;;;;;17.76;92.46;99182.66;107218;1256;59699;-79
2023/06/26 03:10:14;;;;;;;8.10;7.30;;;;;;;17.80;92.53;99184.08;106467;1257;72968;-77
2023/06/26 03:12:42;;;;;;;8.20;7.40;;;;;;;17.81;92.33;99179.06;105643;1262;68821;-78
2023/06/26 03:15:11;;;;;;;8.00;7.10;;;;;;;17.81;92.10;99185.14;105573;1263;71370;-78
2023/06/26 03:17:39;;;;;;;8.80;7.20;;;;;;;17.77;91.85;99185.41;106168;1264;60041;-80
2023/06/26 03:20:10;;;;;;;7.90;7.20;;;;;;;17.75;92.07;99185.37;108046;1258;59676;-81
2023/06/26 03:22:47;;;;;;;7.70;7.00;;;;;;;17.73;91.78;99185.10;106693;1264;70984;-80
2023/06/26 03:25:16;;;;;;;8.10;7.20;;;;;;;17.71;91.64;99186.83;105556;1262;70294;-82
2023/06/26 03:27:45;;;;;;;8.60;7.70;;;;;;;17.68;92.24;99190.35;105594;1256;72299;-80
2023/06/26 03:30:14;;;;;;;9.40;7.20;;;;;;;17.70;93.14;99185.39;105711;1258;62784;-80
2023/06/26 03:32:42;;;;;;;8.20;7.40;;;;;;;17.76;92.92;99180.60;105680;1263;59656;-79
2023/06/26 03:35:10;;;;;;;7.80;7.00;;;;;;;17.80;93.26;99178.73;105772;1258;71236;-79
2023/06/26 03:37:38;;;;;;;11.80;8.00;;;;;;;17.84;93.18;99180.98;105588;1257;69383;-81
2023/06/26 03:40:08;;;;;;;8.00;7.30;;;;;;;17.92;92.77;99180.73;105702;1257;71400;-79
2023/06/26 03:42:35;;;;;;;8.90;7.50;;;;;;;17.98;92.39;99183.20;105893;1258;60483;-80
2023/06/26 03:45:03;;;;;;;8.10;7.30;;;;;;;17.99;92.08;99180.26;106317;1257;60387;-80
2023/06/26 04:03:09;;;;;;;8.70;7.80;;;;;;;18.70;90.52;99167.52;102446;1297;615270;-73
2023/06/26 04:05:37;;;;;;;8.00;7.20;;;;;;;18.88;88.55;99169.02;104930;1266;124305;-72
2023/06/26 04:08:04;;;;;;;9.40;8.50;;;;;;;18.82;87.87;99169.59;105053;1270;59441;-74
2023/06/26 04:10:31;;;;;;;8.70;7.50;;;;;;;18.70;87.67;99170.95;105511;1270;72261;-75
2023/06/26 04:12:58;;;;;;;8.80;8.00;;;;;;;18.60;87.89;99167.03;107506;1265;70188;-71
2023/06/26 04:15:26;;;;;;;9.00;8.20;;;;;;;18.53;88.25;99165.21;108476;1266;71368;-77
2023/06/26 04:17:53;;;;;;;8.60;7.70;;;;;;;18.48;88.39;99168.91;105524;1267;59378;-78
2023/06/26 04:20:20;;;;;;;10.00;8.00;;;;;;;18.41;88.60;99167.41;105108;1271;60175;-73
2023/06/26 04:22:47;;;;;;;8.90;8.10;;;;;;;18.38;88.66;99160.52;105097;1271;72151;-75
2023/06/26 04:25:14;;;;;;;8.70;7.80;;;;;;;18.36;88.64;99163.69;105057;1267;59347;-77
2023/06/26 04:27:41;;;;;;;8.70;7.80;;;;;;;18.37;89.02;99159.23;104931;1270;71665;-75
2023/06/26 04:30:09;;;;;;;7.80;7.10;;;;;;;18.37;88.64;99163.97;105394;1261;62020;-76
2023/06/26 04:32:37;;;;;;;8.40;7.60;;;;;;;18.35;88.55;99165.23;105393;1260;59640;-77
2023/06/26 04:35:04;;;;;;;9.10;8.20;;;;;;;18.34;89.05;99161.75;105397;1260;71797;-78
2023/06/26 04:37:31;;;;;;;8.70;7.90;;;;;;;18.38;89.79;99161.39;105353;1261;70186;-78
2023/06/26 04:39:58;;;;;;;10.20;8.30;;;;;;;18.49;89.82;99159.15;105329;1260;72557;-77
2023/06/26 04:42:24;;;;;;;10.20;8.50;;;;;;;18.50;88.67;99158.19;105781;1260;62133;-74
2023/06/26 04:44:51;;;;;;;8.90;8.00;;;;;;;18.50;88.87;99156.42;108431;1260;58949;-75
2023/06/26 04:47:17;;;;;;;9.30;8.50;;;;;;;18.55;89.31;99155.67;106534;1264;71728;-75
2023/06/26 04:49:45;;;;;;;8.80;8.00;;;;;;;18.58;89.34;99155.20;105418;1261;70553;-75
2023/06/26 04:52:13;;;;;;;8.10;7.40;;;;;;;18.64;88.92;99154.80;105295;1264;72553;-76
2023/06/26 04:54:40;;;;;;;9.40;8.30;;;;;;;18.71;88.86;99150.75;105538;1263;60322;-77
2023/06/26 04:57:08;;;;;;;8.70;7.80;;;;;;;18.77;88.96;99151.13;105411;1260;60049;-79
2023/06/26 04:59:37;;;;;;;8.60;7.80;;;;;;;18.88;88.13;99149.59;105546;1264;72926;-78
2023/06/26 05:02:04;;;;;;;9.40;8.60;;;;;;;18.96;88.15;99149.39;105421;1261;70137;-76
2023/06/26 05:04:32;;;;;;;9.20;8.30;;;;;;;19.01;88.23;99145.34;105699;1264;72636;-78
2023/06/26 05:06:59;;;;;;;11.60;8.90;;;;;;;19.10;87.75;99143.30;105632;1258;60708;-77
2023/06/26 05:09:26;;;;;;;9.10;8.20;;;;;;;19.22;87.37;99140.48;105669;1261;60257;-74
2023/06/26 05:11:53;;;;;;;9.40;8.50;;;;;;;19.25;86.79;99134.25;105936;1260;71676;-77
2023/06/26 05:14:20;;;;;;;8.90;8.00;;;;;;;19.30;86.89;99128.85;108168;1260;70263;-77
2023/06/26 05:16:50;;;;;;;9.90;8.90;;;;;;;19.32;86.62;99131.45;107149;1260;71225;-79
2023/06/26 05:19:17;;;;;;;8.70;7.80;;;;;;;19.32;85.97;99128.23;105421;1265;62487;-77
2023/06/26 05:21:43;;;;;;;8.40;7.50;;;;;;;19.29;86.03;99125.71;105517;1259;59636;-76
2023/06/26 05:24:10;;;;;;;8.20;7.40;;;;;;;19.28;86.09;99126.94;105420;1263;59622;-78
2023/06/26 05:26:38;;;;;;;10.50;9.30;;;;;;;19.34;85.75;99125.20;105459;1264;70327;-80
2023/06/26 05:29:05;;;;;;;9.20;8.30;;;;;;;19.35;85.34;99126.45;105406;1260;72495;-73
2023/06/26 05:31:33;;;;;;;9.10;8.00;;;;;;;19.32;84.90;99124.37;105484;1260;61667;-74
2023/06/26 05:34:00;;;;;;;8.80;8.00;;;;;;;19.36;85.10;99123.95;105590;1261;60093;-75
2023/06/26 05:36:28;;;;;;;9.00;8.20;;;;;;;19.35;84.51;99124.42;105694;1264;72940;-77
2023/06/26 05:38:56;;;;;;;8.60;7.70;;;;;;;19.30;84.67;99129.10;105620;1260;69167;-76
2023/06/26 05:41:23;;;;;;;9.10;7.90;;;;;;;19.35;84.88;99128.29;106143;1260;72518;-80
2023/06/26 05:43:50;;;;;;;8.90;8.10;;;;;;;19.35;84.79;99129.81;107774;1260;58409;-77
2023/06/26 05:46:16;;;;;;;8.60;7.60;;;;;;;19.38;84.93;99129.38;107232;1260;59273;-77
2023/06/26 05:48:43;;;;;;;8.00;7.20;;;;;;;19.46;84.95;99129.79;105355;1265;73072;-77
2023/06/26 05:51:10;;;;;;;9.40;7.60;;;;;;;19.45;85.24;99127.89;105410;1260;59726;-73
2023/06/26 05:53:37;;;;;;;9.20;7.00;;;;;;;19.42;85.04;99129.56;105487;1261;72486;-74
2023/06/26 05:56:04;;;;;;;7.80;7.00;;;;;;;19.48;84.59;99129.98;105121;1261;62149;-75
2023/06/26 05:58:31;;;;;;;7.90;6.90;;;;;;;19.54;84.50;99127.73;105462;1260;60291;-75
2023/06/26 06:00:58;;;;;;;8.20;7.50;;;;;;;19.58;84.00;99122.25;105538;1260;73054;-77
2023/06/26 06:03:25;;;;;;;7.80;7.00;;;;;;;19.67;83.85;99125.48;105393;1260;70359;-79
2023/06/26 06:05:52;;;;;;;8.00;7.10;;;;;;;19.70;83.32;99122.03;105375;1260;72530;-74
2023/06/26 06:08:20;;;;;;;9.50;8.00;;;;;;;19.72;82.95;99116.70;105644;1259;62252;-77
2023/06/26 06:10:49;;;;;;;7.40;6.80;;;;;;;19.79;82.99;99117.25;105744;1260;60127;-77
2023/06/26 06:13:15;;;;;;;8.40;7.70;;;;;;;19.80;83.15;99116.48;106785;1260;71708;-79
2023/06/26 06:15:43;;;;;;;7.50;6.80;;;;;;;19.78;82.58;99117.94;108468;1260;68867;-79
2023/06/26 06:18:10;;;;;;;7.20;6.60;;;;;;;19.78;81.44;99117.99;105634;1259;71308;-78
2023/06/26 06:20:37;;;;;;;8.10;6.90;;;;;;;19.69;79.97;99118.36;105685;1261;60427;-78
2023/06/26 06:23:04;;;;;;;6.50;5.90;;;;;;;19.56;80.72;99119.20;105696;1259;60302;-81
2023/06/26 06:25:31;;;;;;;6.60;5.30;;;;;;;19.47;81.06;99119.10;105689;1263;73035;-78
2023/06/26 06:27:58;;;;;;;6.50;5.80;;;;;;;19.36;80.67;99124.32;105512;1258;70152;-79
2023/06/26 06:30:24;;;;;;;6.60;5.80;;;;;;;19.25;81.56;99125.63;105682;1263;72592;-77
2023/06/26 06:33:10;;;;;;;7.20;5.40;;;;;;;19.29;81.61;99125.05;105531;1261;60329;-78
2023/06/26 06:35:37;;;;;;;6.90;5.20;;;;;;;19.32;81.54;99121.83;105469;1260;59660;-77
2023/06/26 06:38:04;;;;;;;6.30;5.20;;;;;;;19.42;80.89;99121.73;105509;1261;73067;-76
2023/06/26 06:40:30;;;;;;;5.70;4.90;;;;;;;19.53;81.09;99118.88;105577;1261;69346;-77
2023/06/26 06:42:57;;;;;;;6.00;5.40;;;;;;;19.62;82.12;99113.96;106634;1260;72719;-76
2023/06/26 06:45:24;;;;;;;5.70;5.20;;;;;;;19.72;81.77;99110.27;108326;1260;59317;-78
2023/06/26 06:47:51;;;;;;;6.10;5.60;;;;;;;19.86;80.85;99105.14;105665;1260;60414;-78
2023/06/26 06:50:18;;;;;;;6.20;5.50;;;;;;;19.98;80.72;99104.89;105547;1261;71680;-78
2023/06/26 06:52:44;;;;;;;5.60;5.10;;;;;;;19.98;80.73;99111.10;105643;1257;70301;-77
2023/06/26 06:55:11;;;;;;;7.50;5.40;;;;;;;19.87;80.44;99116.30;105812;1256;74182;-77
2023/06/26 06:57:39;;;;;;;5.90;5.40;;;;;;;19.81;80.52;99118.14;105599;1258;61921;-78
2023/06/26 07:00:13;;;;;;;5.20;4.70;;;;;;;19.81;79.40;99120.14;105715;1257;59637;-79
2023/06/26 07:02:43;;;;;;;5.80;5.30;;;;;;;19.71;79.38;99121.85;105823;1259;73146;-76
2023/06/26 07:05:10;;;;;;;5.50;5.00;;;;;;;19.57;79.55;99121.74;105824;1258;70459;-80
2023/06/26 07:07:37;;;;;;;4.70;4.30;;;;;;;19.52;79.61;99125.30;105819;1260;71402;-79
2023/06/26 07:10:09;;;;;;;5.90;5.40;;;;;;;19.48;80.24;99124.92;106060;1256;59598;-79
2023/06/26 07:12:36;;;;;;;5.10;4.60;;;;;;;19.41;80.66;99126.95;107181;1256;60314;-79
2023/06/26 07:15:04;;;;;;;5.60;5.10;;;;;;;19.34;80.86;99127.64;108813;1257;71584;-79
2023/06/26 07:17:33;;;;;;;5.30;4.80;;;;;;;19.34;80.72;99122.99;106655;1257;69016;-83
2023/06/26 07:20:15;;;;;;;5.50;5.00;;;;;;;19.27;79.98;99120.08;106091;1260;71536;-79
2023/06/26 07:22:55;;;;;;;5.90;5.40;;;;;;;19.22;81.05;99117.38;106184;1261;60013;-80
2023/06/26 07:25:22;;;;;;;5.10;4.60;;;;;;;19.31;81.71;99117.55;105987;1256;59764;-81
2023/06/26 07:27:48;;;;;;;5.10;4.60;;;;;;;19.35;81.35;99113.37;106168;1257;59554;-80
2023/06/26 07:30:15;;;;;;;4.50;4.10;;;;;;;19.41;81.83;99107.77;106166;1261;70301;-80
2023/06/26 07:32:44;;;;;;;4.60;4.20;;;;;;;19.53;80.35;99107.17;106397;1258;72749;-83
2023/06/26 07:35:11;;;;;;;5.70;4.80;;;;;;;19.57;80.01;99108.07;106913;1257;59450;-79
2023/06/26 07:37:38;;;;;;;5.80;4.50;;;;;;;19.59;80.05;99111.21;106850;1257;60870;-82
2023/06/26 07:40:05;;;;;;;4.30;3.90;;;;;;;19.63;79.83;99106.64;107059;1257;71919;-79
2023/06/26 07:42:32;;;;;;;4.80;4.30;;;;;;;19.69;79.39;99110.86;108783;1256;70379;-84
2023/06/26 07:44:59;;;;;;;5.50;4.60;;;;;;;19.66;78.82;99104.78;108951;1257;72452;-83
2023/06/26 07:47:26;;;;;;;4.80;4.30;;;;;;;19.57;79.33;99107.15;107283;1257;59506;-83
2023/06/26 07:49:52;;;;;;;4.80;4.40;;;;;;;19.53;79.03;99114.98;107118;1257;59636;-84
2023/06/26 07:52:20;;;;;;;4.60;4.20;;;;;;;19.54;79.37;99109.51;107200;1257;71642;-83
2023/06/26 07:54:46;;;;;;;5.80;4.90;;;;;;;19.48;79.57;99109.51;106848;1257;68543;-81
2023/06/26 07:57:13;;;;;;;4.30;3.90;;;;;;;19.38;79.43;99108.86;107131;1258;71182;-79
2023/06/26 07:59:40;;;;;;;5.00;3.80;;;;;;;19.36;79.47;99110.90;107832;1257;60556;-81
2023/06/26 08:02:07;;;;;;;4.00;3.70;;;;;;;19.40;79.57;99102.30;108182;1257;59786;-83
2023/06/26 08:04:35;;;;;;;4.20;3.90;;;;;;;19.42;79.91;99099.44;107692;1260;71756;-83
2023/06/26 08:07:03;;;;;;;4.90;4.50;;;;;;;19.45;79.94;99103.38;106778;1257;70115;-84
2023/06/26 08:09:31;;;;;;;5.70;4.00;;;;;;;19.58;79.39;99104.52;107740;1258;72481;-84
2023/06/26 08:11:59;;;;;;;6.50;4.30;;;;;;;19.67;78.12;99109.32;107737;1257;59225;-86
2023/06/26 08:14:28;;;;;;;4.80;4.40;;;;;;;19.67;78.17;99111.52;109026;1257;59109;-83
2023/06/26 08:16:55;;;;;;;4.70;4.20;;;;;;;19.68;78.35;99110.89;107240;1257;72441;-84
2023/06/26 08:19:21;;;;;;;4.50;4.10;;;;;;;19.78;78.72;99114.45;106622;1255;70245;-84
2023/06/26 08:21:48;;;;;;;4.40;4.00;;;;;;;19.86;78.50;99111.94;106591;1258;71975;-83
2023/06/26 08:24:17;;;;;;;4.00;3.70;;;;;;;19.94;78.27;99109.63;106877;1257;60563;-85
2023/06/26 08:26:47;;;;;;;4.50;4.00;;;;;;;20.04;78.06;99112.77;106852;1257;60467;-84
2023/06/26 08:29:15;;;;;;;4.00;3.60;;;;;;;20.26;77.87;99116.88;106775;1263;74323;-83
2023/06/26 08:31:42;;;;;;;4.40;4.00;;;;;;;20.46;77.74;99116.23;107003;1257;60526;-82
2023/06/26 08:34:09;;;;;;;3.80;3.50;;;;;;;20.55;76.31;99120.91;107150;1257;72716;-83
2023/06/26 08:36:36;;;;;;;3.50;3.20;;;;;;;20.53;75.40;99121.90;106536;1261;60465;-83
2023/06/26 08:39:05;;;;;;;2.70;2.20;;;;;;;20.46;74.51;99126.61;106723;1255;60544;-81
2023/06/26 08:41:32;;;;;;;4.80;2.30;;;;;;;20.38;74.73;99128.77;107053;1257;73948;-84
2023/06/26 08:43:59;;;;;;;2.50;2.20;;;;;;;20.27;74.91;99127.83;108199;1257;68810;-83
2023/06/26 08:46:26;;;;;;;2.90;2.10;;;;;;;20.15;74.59;99126.90;109073;1257;71154;-83
2023/06/26 08:48:55;;;;;;;3.20;2.50;;;;;;;20.06;75.22;99126.75;107578;1257;60708;-83
2023/06/26 08:51:28;;;;;;;3.00;2.00;;;;;;;20.14;75.10;99133.94;107486;1260;60411;-83
2023/06/26 08:53:59;;;;;;;5.10;1.90;;;;;;;20.17;75.15;99134.48;106706;1257;73765;-84
2023/06/26 08:56:40;;;;;;;2.70;2.20;;;;;;;20.19;75.45;99131.87;106218;1260;69440;-82
2023/06/26 08:59:07;;;;;;;3.20;2.00;;;;;;;20.29;74.64;99129.98;106047;1257;71590;-85
2023/06/26 09:01:34;;;;;;;1.90;1.80;;;;;;;20.48;74.66;99131.27;106246;1257;60319;-84
2023/06/26 09:04:00;;;;;;;2.70;2.10;;;;;;;20.64;74.60;99134.87;106493;1257;60432;-84
2023/06/26 09:06:27;;;;;;;2.00;1.90;;;;;;;20.75;74.40;99134.00;106732;1258;72544;-82
2023/06/26 09:08:54;;;;;;;3.00;2.20;;;;;;;20.80;73.73;99134.77;106914;1259;70339;-83
2023/06/26 09:11:21;;;;;;;2.20;2.00;;;;;;;20.80;72.79;99133.38;107022;1261;71456;-87
2023/06/26 09:13:48;;;;;;;3.30;1.70;;;;;;;20.81;72.56;99130.19;107451;1258;60293;-86
2023/06/26 09:16:15;;;;;;;1.60;1.40;;;;;;;20.79;72.37;99129.63;108981;1257;57982;-83
2023/06/26 09:18:44;;;;;;;1.90;1.70;;;;;;;20.72;72.21;99134.71;107557;1257;72497;-86
2023/06/26 09:21:11;;;;;;;1.70;1.60;;;;;;;20.64;72.30;99136.10;106868;1258;70035;-82
2023/06/26 09:23:40;;;;;;;2.50;1.70;;;;;;;20.51;72.45;99143.77;107157;1259;71395;-82
2023/06/26 09:26:07;;;;;;;1.70;1.60;;;;;;;20.49;73.14;99148.70;106656;1257;60474;-81
2023/06/26 09:28:34;;;;;;;2.00;1.60;;;;;;;20.49;73.39;99146.01;106413;1258;60388;-84
2023/06/26 09:31:05;;;;;;;1.80;1.70;;;;;;;20.47;73.37;99150.52;106385;1257;73879;-82
2023/06/26 09:33:36;;;;;;;2.00;1.70;;;;;;;20.45;73.33;99146.06;107083;1258;70418;-84
2023/06/26 09:36:06;;;;;;;2.40;1.70;;;;;;;20.46;73.43;99145.70;107176;1257;71670;-84
2023/06/26 09:38:34;;;;;;;1.90;1.80;;;;;;;20.58;72.95;99147.40;107169;1259;60484;-85
2023/06/26 09:41:03;;;;;;;1.60;1.50;;;;;;;20.60;72.64;99150.05;107444;1257;59253;-87
2023/06/26 09:43:33;;;;;;;1.70;1.60;;;;;;;20.55;72.56;99148.91;106820;1256;73681;-86
2023/06/26 09:46:00;;;;;;;2.10;1.90;;;;;;;20.52;73.04;99146.83;108857;1257;70181;-85
2023/06/26 09:48:28;;;;;;;2.10;1.90;;;;;;;20.58;73.10;99143.74;107682;1258;71425;-84
2023/06/26 09:50:55;;;;;;;1.80;1.70;;;;;;;20.77;72.91;99134.89;107307;1257;60118;-84
2023/06/26 09:53:42;;;;;;;2.10;2.00;;;;;;;20.99;72.93;99140.83;107465;1257;59408;-86
2023/06/26 09:56:19;;;;;;;3.80;2.00;;;;;;;21.18;72.20;99139.66;106799;1258;74177;-83
2023/06/26 09:58:46;;;;;;;2.00;1.80;;;;;;;21.32;71.14;99133.39;106701;1257;70187;-85
2023/06/26 10:01:13;;;;;;;3.80;2.00;;;;;;;21.38;70.27;99132.54;107958;1261;72672;-86
2023/06/26 10:03:40;;;;;;;2.10;1.80;;;;;;;21.36;69.93;99134.56;108511;1259;60439;-83
2023/06/26 10:06:08;;;;;;;1.60;1.50;;;;;;;21.38;69.99;99134.05;108832;1257;60406;-85
2023/06/26 10:08:34;;;;;;;2.20;2.00;;;;;;;21.37;70.17;99137.07;107352;1259;72486;-82
2023/06/26 10:11:01;;;;;;;2.90;1.80;;;;;;;21.29;69.66;99143.13;106975;1258;71589;-85
2023/06/26 10:13:31;;;;;;;2.00;1.90;;;;;;;21.14;69.78;99145.45;107140;1259;71517;-82
2023/06/26 10:15:59;;;;;;;3.00;1.90;;;;;;;20.95;69.93;99150.23;109128;1257;58943;-86
2023/06/26 10:18:26;;;;;;;2.60;2.20;;;;;;;20.81;70.40;99149.73;107063;1258;60334;-84
2023/06/26 10:20:53;;;;;;;2.00;1.90;;;;;;;20.84;70.98;99152.40;106244;1261;73926;-87
2023/06/26 10:23:20;;;;;;;2.20;2.00;;;;;;;21.04;71.39;99149.05;107697;1257;70081;-84
2023/06/26 10:25:48;;;;;;;2.60;1.80;;;;;;;21.25;71.10;99147.30;108383;1257;71488;-86
2023/06/26 10:28:14;;;;;;;2.50;2.10;;;;;;;21.41;70.49;99144.69;107816;1261;60538;-82
2023/06/26 10:30:42;;;;;;;2.20;2.00;;;;;;;21.59;70.57;99146.62;107512;1257;60598;-83
2023/06/26 10:33:11;;;;;;;2.70;2.30;;;;;;;21.83;70.01;99146.84;107872;1257;73836;-85
2023/06/26 10:35:44;;;;;;;2.40;2.20;;;;;;;22.11;69.06;99147.19;108442;1257;68891;-84
2023/06/26 10:38:10;;;;;;;2.40;2.20;;;;;;;22.32;66.99;99145.10;108175;1256;71358;-83
2023/06/26 10:40:48;;;;;;;2.50;2.30;;;;;;;22.55;66.50;99151.27;107990;1257;60455;-84
2023/06/26 10:43:16;;;;;;;2.50;2.30;;;;;;;22.91;65.98;99154.67;107964;1257;60353;-84
2023/06/26 10:45:44;;;;;;;2.80;2.40;;;;;;;23.33;64.56;99158.05;108911;1257;71469;-85
2023/06/26 10:48:14;;;;;;;2.60;2.20;;;;;;;23.67;63.55;99152.50;108315;1257;70413;-81
2023/06/26 10:50:41;;;;;;;3.90;2.50;;;;;;;23.86;62.05;99154.19;106878;1257;72517;-85
2023/06/26 10:53:34;;;;;;;3.40;2.40;;;;;;;23.92;61.04;99157.33;106698;1259;60462;-82
2023/06/26 10:56:03;;;;;;;3.10;2.80;;;;;;;23.93;60.72;99157.92;106470;1259;60565;-83
2023/06/26 10:58:43;;;;;;;2.70;2.40;;;;;;;23.93;60.29;99157.00;107033;1257;75001;-82
2023/06/26 11:01:13;;;;;;;3.10;2.60;;;;;;;23.89;60.42;99160.26;106637;1258;70707;-84
2023/06/26 11:03:44;;;;;;;2.80;2.50;;;;;;;23.76;60.01;99164.89;107133;1259;71432;-84
2023/06/26 11:06:20;;;;;;;2.40;2.20;;;;;;;23.48;60.19;99164.92;106653;1256;60459;-82
2023/06/26 11:08:49;;;;;;;3.00;2.30;;;;;;;23.12;60.86;99173.90;106656;1258;60439;-85
2023/06/26 11:11:16;;;;;;;3.20;2.40;;;;;;;22.74;61.66;99178.73;106374;1260;72658;-82
2023/06/26 11:13:44;;;;;;;3.00;2.50;;;;;;;22.48;62.88;99181.05;106838;1259;70328;-82
2023/06/26 11:16:11;;;;;;;3.40;2.80;;;;;;;22.41;63.78;99176.56;108085;1257;72734;-83
2023/06/26 11:18:38;;;;;;;2.80;2.40;;;;;;;22.54;63.87;99176.70;108615;1258;58890;-84
2023/06/26 11:21:09;;;;;;;2.30;2.10;;;;;;;22.88;64.77;99172.84;108444;1257;59081;-78
2023/06/26 11:23:37;;;;;;;2.70;2.50;;;;;;;23.31;64.30;99169.55;107857;1257;73624;-82
2023/06/26 11:26:23;;;;;;;2.90;2.60;;;;;;;23.66;63.31;99168.05;106514;1257;68912;-79
2023/06/26 11:28:56;;;;;;;3.50;2.40;;;;;;;24.02;62.21;99164.77;106905;1259;72527;-82
2023/06/26 11:31:33;;;;;;;4.60;2.20;;;;;;;24.23;60.53;99159.94;106712;1261;60473;-82
2023/06/26 11:34:07;;;;;;;2.90;2.60;;;;;;;24.23;59.12;99166.02;106454;1257;60480;-84
2023/06/26 11:36:36;;;;;;;2.50;2.30;;;;;;;24.14;58.54;99162.77;106667;1257;74005;-81
2023/06/26 11:39:08;;;;;;;2.70;2.50;;;;;;;24.02;58.26;99163.10;107384;1257;70081;-83
2023/06/26 11:41:35;;;;;;;3.00;2.30;;;;;;;23.92;58.31;99166.45;107374;1257;72486;-83
2023/06/26 11:44:06;;;;;;;2.50;2.30;;;;;;;23.83;58.95;99163.34;108006;1257;60492;-83
2023/06/26 11:46:34;;;;;;;3.40;2.30;;;;;;;23.86;59.59;99166.88;109229;1257;59066;-81
2023/06/26 11:49:05;;;;;;;2.70;2.40;;;;;;;24.23;59.55;99163.24;107955;1258;72579;-82